Time,TemperatureF,DewpointF,PressureIn,WindDirection,WindDirectionDegrees,WindSpeedMPH,WindSpeedGustMPH,Humidity,HourlyPrecipIn,Conditions,Clouds,dailyrainin,SoftwareType,DateUTC
2013-11-25 00:32:00,20.5,12.0,30.79,East,90,3.1,3.1,69,0.00,,,0.00,WUHU21623XXSP,2013-11-25 05:32:00,
2013-11-25 01:32:00,20.8,11.3,30.76,NE,45,0.0,0.0,66,0.00,,,0.00,WUHU21623XXSP,2013-11-25 06:32:00,
2013-11-25 02:32:00,20.5,10.7,30.74,NNE,23,0.0,0.0,65,0.00,,,0.00,WUHU21623XXSP,2013-11-25 07:32:00,
2013-11-25 03:32:00,20.8,10.2,30.72,NNW,338,0.0,0.0,63,0.00,,,0.00,WUHU21623XXSP,2013-11-25 08:32:00,
2013-11-25 04:32:00,21.0,9.3,30.69,SSW,203,0.0,0.0,60,0.00,,,0.00,WUHU21623XXSP,2013-11-25 09:32:00,
2013-11-25 05:32:00,20.8,9.1,30.66,North,0,0.0,0.0,60,0.00,,,0.00,WUHU21623XXSP,2013-11-25 10:32:00,
2013-11-25 06:32:00,21.0,8.9,30.63,ENE,68,0.0,0.0,59,0.00,,,0.00,WUHU21623XXSP,2013-11-25 11:32:00,
2013-11-25 07:32:00,22.3,9.0,30.63,North,0,0.0,0.0,56,0.00,,,0.00,WUHU21623XXSP,2013-11-25 12:32:00,
2013-11-25 08:32:00,23.0,8.8,30.61,NE,45,3.1,3.1,54,0.00,,,0.00,WUHU21623XXSP,2013-11-25 13:32:00,
2013-11-25 09:32:00,25.3,10.5,30.59,North,0,0.0,0.0,53,0.00,,,0.00,WUHU21623XXSP,2013-11-25 14:32:00,
2013-11-25 10:32:00,26.4,12.4,30.58,SW,225,0.0,0.0,55,0.00,,,0.00,WUHU21623XXSP,2013-11-25 15:32:00,
2013-11-25 11:32:00,25.0,17.9,30.56,SSW,203,0.0,0.0,74,0.00,,,0.00,WUHU21623XXSP,2013-11-25 16:32:00,
2013-11-25 12:32:00,27.1,20.6,30.50,SE,135,0.0,0.0,76,0.00,,,0.00,WUHU21623XXSP,2013-11-25 17:32:00,
2013-11-25 13:32:00,29.1,21.9,30.48,ENE,68,2.7,2.7,74,0.00,,,0.00,WUHU21623XXSP,2013-11-25 18:32:00,
2013-11-25 14:32:00,31.3,21.7,30.47,ESE,113,0.0,0.0,67,0.00,,,0.00,WUHU21623XXSP,2013-11-25 19:32:00,
2013-11-25 15:32:00,31.1,22.2,30.47,East,90,0.0,0.0,69,0.00,,,0.00,WUHU21623XXSP,2013-11-25 20:32:00,
2013-11-25 16:32:00,30.4,22.8,30.48,East,90,2.9,2.9,73,0.00,,,0.00,WUHU21623XXSP,2013-11-25 21:32:00,
2013-11-25 17:32:00,29.1,22.2,30.48,NE,45,0.0,0.0,75,0.00,,,0.00,WUHU21623XXSP,2013-11-25 22:32:00,
2013-11-25 18:32:00,28.9,22.6,30.50,ESE,113,0.0,0.0,77,0.00,,,0.00,WUHU21623XXSP,2013-11-25 23:32:00,
2013-11-25 19:32:00,28.6,23.8,30.51,East,90,0.0,0.0,82,0.00,,,0.00,WUHU21623XXSP,2013-11-26 00:32:00,
2013-11-25 20:32:00,28.6,24.6,30.52,NE,45,0.0,0.0,85,0.00,,,0.00,WUHU21623XXSP,2013-11-26 01:32:00,
2013-11-25 21:32:00,28.6,24.6,30.53,ENE,68,0.0,0.0,85,0.00,,,0.00,WUHU21623XXSP,2013-11-26 02:32:00,
2013-11-25 22:32:00,29.1,25.4,30.53,NNE,23,0.0,0.0,86,0.00,,,0.00,WUHU21623XXSP,2013-11-26 03:32:00,
2013-11-25 23:32:00,29.5,26.1,30.52,North,0,0.0,0.0,87,0.00,,,0.00,WUHU21623XXSP,2013-11-26 04:32:00,